sensor_id;sensor_type;location;lat;lon;timestamp;P1;durP1;ratioP1;P2;durP2;ratioP2
52564;SDS011;38460;53.106;7.004;2024-02-16T00:01:00;9.15;;;4.38;;
52564;SDS011;38460;53.106;7.004;2024-02-16T00:03:26;8.32;;;4.53;;
52564;SDS011;38460;53.106;7.004;2024-02-16T00:05:53;9.73;;;4.70;;
52564;SDS011;38460;53.106;7.004;2024-02-16T00:08:19;7.65;;;4.63;;
52564;SDS011;38460;53.106;7.004;2024-02-16T00:10:47;7.93;;;4.70;;
52564;SDS011;38460;53.106;7.004;2024-02-16T00:13:13;6.68;;;4.55;;
52564;SDS011;38460;53.106;7.004;2024-02-16T00:15:40;7.55;;;4.20;;
52564;SDS011;38460;53.106;7.004;2024-02-16T00:18:06;6.85;;;4.00;;
52564;SDS011;38460;53.106;7.004;2024-02-16T00:20:32;7.32;;;4.40;;
52564;SDS011;38460;53.106;7.004;2024-02-16T00:22:58;7.85;;;4.38;;
52564;SDS011;38460;53.106;7.004;2024-02-16T00:25:25;7.32;;;4.45;;
52564;SDS011;38460;53.106;7.004;2024-02-16T00:27:51;6.97;;;4.65;;
52564;SDS011;38460;53.106;7.004;2024-02-16T00:30:21;7.50;;;5.00;;
52564;SDS011;38460;53.106;7.004;2024-02-16T00:32:47;6.40;;;4.35;;
52564;SDS011;38460;53.106;7.004;2024-02-16T00:35:16;8.27;;;4.05;;
52564;SDS011;38460;53.106;7.004;2024-02-16T00:37:43;10.15;;;4.57;;
52564;SDS011;38460;53.106;7.004;2024-02-16T00:40:09;8.88;;;4.05;;
52564;SDS011;38460;53.106;7.004;2024-02-16T00:42:35;7.55;;;4.53;;
52564;SDS011;38460;53.106;7.004;2024-02-16T00:45:01;7.90;;;3.90;;
52564;SDS011;38460;53.106;7.004;2024-02-16T00:47:27;5.03;;;3.90;;
52564;SDS011;38460;53.106;7.004;2024-02-16T00:49:53;6.38;;;3.70;;
52564;SDS011;38460;53.106;7.004;2024-02-16T00:52:18;5.85;;;3.85;;
52564;SDS011;38460;53.106;7.004;2024-02-16T00:54:44;6.07;;;3.88;;
52564;SDS011;38460;53.106;7.004;2024-02-16T00:57:11;6.55;;;3.67;;
52564;SDS011;38460;53.106;7.004;2024-02-16T00:59:39;8.90;;;4.00;;
52564;SDS011;38460;53.106;7.004;2024-02-16T01:02:08;6.45;;;3.55;;
52564;SDS011;38460;53.106;7.004;2024-02-16T01:04:35;7.00;;;4.00;;
52564;SDS011;38460;53.106;7.004;2024-02-16T01:07:01;8.55;;;4.00;;
52564;SDS011;38460;53.106;7.004;2024-02-16T01:09:28;6.32;;;3.30;;
52564;SDS011;38460;53.106;7.004;2024-02-16T01:11:54;6.47;;;3.65;;
52564;SDS011;38460;53.106;7.004;2024-02-16T01:14:20;6.15;;;3.25;;
52564;SDS011;38460;53.106;7.004;2024-02-16T01:16:46;7.07;;;3.33;;
52564;SDS011;38460;53.106;7.004;2024-02-16T01:19:12;7.03;;;3.65;;
52564;SDS011;38460;53.106;7.004;2024-02-16T01:21:37;6.22;;;3.00;;
52564;SDS011;38460;53.106;7.004;2024-02-16T01:24:04;5.05;;;3.42;;
52564;SDS011;38460;53.106;7.004;2024-02-16T01:26:31;5.90;;;3.38;;
52564;SDS011;38460;53.106;7.004;2024-02-16T01:28:57;6.80;;;3.58;;
52564;SDS011;38460;53.106;7.004;2024-02-16T01:31:24;6.03;;;3.22;;
52564;SDS011;38460;53.106;7.004;2024-02-16T01:33:49;4.95;;;3.40;;
52564;SDS011;38460;53.106;7.004;2024-02-16T01:36:15;7.25;;;3.28;;
52564;SDS011;38460;53.106;7.004;2024-02-16T01:38:41;7.57;;;3.42;;
52564;SDS011;38460;53.106;7.004;2024-02-16T01:41:07;7.20;;;3.28;;
52564;SDS011;38460;53.106;7.004;2024-02-16T01:43:34;4.30;;;2.75;;
52564;SDS011;38460;53.106;7.004;2024-02-16T01:46:00;4.28;;;3.10;;
52564;SDS011;38460;53.106;7.004;2024-02-16T01:48:26;9.80;;;3.50;;
52564;SDS011;38460;53.106;7.004;2024-02-16T01:50:52;5.80;;;3.28;;
52564;SDS011;38460;53.106;7.004;2024-02-16T01:53:19;6.70;;;3.22;;
52564;SDS011;38460;53.106;7.004;2024-02-16T01:55:46;5.20;;;2.97;;
52564;SDS011;38460;53.106;7.004;2024-02-16T01:58:12;5.32;;;2.97;;
52564;SDS011;38460;53.106;7.004;2024-02-16T02:00:38;5.07;;;3.33;;
52564;SDS011;38460;53.106;7.004;2024-02-16T02:03:06;5.47;;;3.13;;
52564;SDS011;38460;53.106;7.004;2024-02-16T02:05:32;5.43;;;3.17;;
52564;SDS011;38460;53.106;7.004;2024-02-16T02:07:58;6.20;;;3.50;;
52564;SDS011;38460;53.106;7.004;2024-02-16T02:10:24;5.25;;;3.25;;
52564;SDS011;38460;53.106;7.004;2024-02-16T02:12:50;6.40;;;2.95;;
52564;SDS011;38460;53.106;7.004;2024-02-16T02:15:15;7.47;;;3.30;;
52564;SDS011;38460;53.106;7.004;2024-02-16T02:17:41;5.10;;;3.38;;
52564;SDS011;38460;53.106;7.004;2024-02-16T02:20:07;8.63;;;3.72;;
52564;SDS011;38460;53.106;7.004;2024-02-16T02:22:36;7.53;;;3.53;;
52564;SDS011;38460;53.106;7.004;2024-02-16T02:25:03;5.15;;;3.28;;
52564;SDS011;38460;53.106;7.004;2024-02-16T02:27:30;6.05;;;3.67;;
52564;SDS011;38460;53.106;7.004;2024-02-16T02:29:56;6.40;;;3.78;;
52564;SDS011;38460;53.106;7.004;2024-02-16T02:32:23;5.70;;;3.30;;
52564;SDS011;38460;53.106;7.004;2024-02-16T02:34:49;5.10;;;3.10;;
52564;SDS011;38460;53.106;7.004;2024-02-16T02:37:14;4.90;;;3.17;;
52564;SDS011;38460;53.106;7.004;2024-02-16T02:39:40;5.68;;;3.67;;
52564;SDS011;38460;53.106;7.004;2024-02-16T02:42:06;6.47;;;3.50;;
52564;SDS011;38460;53.106;7.004;2024-02-16T02:44:33;4.88;;;3.20;;
52564;SDS011;38460;53.106;7.004;2024-02-16T02:47:00;5.15;;;3.72;;
52564;SDS011;38460;53.106;7.004;2024-02-16T02:49:26;6.80;;;3.95;;
52564;SDS011;38460;53.106;7.004;2024-02-16T02:51:52;7.78;;;3.67;;
52564;SDS011;38460;53.106;7.004;2024-02-16T02:54:17;8.70;;;3.72;;
52564;SDS011;38460;53.106;7.004;2024-02-16T02:56:43;7.55;;;4.03;;
52564;SDS011;38460;53.106;7.004;2024-02-16T02:59:09;7.35;;;3.60;;
52564;SDS011;38460;53.106;7.004;2024-02-16T03:01:36;5.18;;;3.42;;
52564;SDS011;38460;53.106;7.004;2024-02-16T03:04:02;7.32;;;3.92;;
52564;SDS011;38460;53.106;7.004;2024-02-16T03:06:28;7.90;;;3.40;;
52564;SDS011;38460;53.106;7.004;2024-02-16T03:08:54;8.35;;;3.85;;
52564;SDS011;38460;53.106;7.004;2024-02-16T03:11:20;7.78;;;3.80;;
52564;SDS011;38460;53.106;7.004;2024-02-16T03:13:46;5.32;;;3.60;;
52564;SDS011;38460;53.106;7.004;2024-02-16T03:16:13;5.68;;;3.78;;
52564;SDS011;38460;53.106;7.004;2024-02-16T03:18:39;5.30;;;3.60;;
52564;SDS011;38460;53.106;7.004;2024-02-16T03:21:05;8.35;;;3.70;;
52564;SDS011;38460;53.106;7.004;2024-02-16T03:23:31;5.65;;;3.28;;
52564;SDS011;38460;53.106;7.004;2024-02-16T03:25:56;6.07;;;3.55;;
52564;SDS011;38460;53.106;7.004;2024-02-16T03:28:22;4.70;;;2.97;;
52564;SDS011;38460;53.106;7.004;2024-02-16T03:30:48;5.70;;;3.53;;
52564;SDS011;38460;53.106;7.004;2024-02-16T03:33:14;6.65;;;4.07;;
52564;SDS011;38460;53.106;7.004;2024-02-16T03:35:39;6.13;;;4.28;;
52564;SDS011;38460;53.106;7.004;2024-02-16T03:38:05;5.97;;;3.60;;
52564;SDS011;38460;53.106;7.004;2024-02-16T03:40:32;7.88;;;3.70;;
52564;SDS011;38460;53.106;7.004;2024-02-16T03:42:58;5.85;;;3.50;;
52564;SDS011;38460;53.106;7.004;2024-02-16T03:45:24;8.23;;;4.20;;
52564;SDS011;38460;53.106;7.004;2024-02-16T03:47:52;6.75;;;4.22;;
52564;SDS011;38460;53.106;7.004;2024-02-16T03:50:18;7.68;;;3.85;;
52564;SDS011;38460;53.106;7.004;2024-02-16T03:52:44;5.32;;;4.13;;
52564;SDS011;38460;53.106;7.004;2024-02-16T03:55:10;6.80;;;3.88;;
52564;SDS011;38460;53.106;7.004;2024-02-16T03:57:37;6.55;;;3.58;;
52564;SDS011;38460;53.106;7.004;2024-02-16T04:00:03;5.10;;;3.35;;
52564;SDS011;38460;53.106;7.004;2024-02-16T04:02:31;7.13;;;3.90;;
52564;SDS011;38460;53.106;7.004;2024-02-16T04:04:57;6.32;;;4.07;;
52564;SDS011;38460;53.106;7.004;2024-02-16T04:07:23;4.88;;;3.65;;
52564;SDS011;38460;53.106;7.004;2024-02-16T04:09:49;5.95;;;3.35;;
52564;SDS011;38460;53.106;7.004;2024-02-16T04:12:15;5.63;;;3.28;;
52564;SDS011;38460;53.106;7.004;2024-02-16T04:14:40;6.78;;;3.90;;
52564;SDS011;38460;53.106;7.004;2024-02-16T04:17:07;6.35;;;3.45;;
52564;SDS011;38460;53.106;7.004;2024-02-16T04:19:32;7.35;;;4.00;;
52564;SDS011;38460;53.106;7.004;2024-02-16T04:21:58;6.90;;;4.32;;
52564;SDS011;38460;53.106;7.004;2024-02-16T04:24:24;7.93;;;4.63;;
52564;SDS011;38460;53.106;7.004;2024-02-16T04:26:50;5.78;;;3.70;;
52564;SDS011;38460;53.106;7.004;2024-02-16T04:29:15;6.22;;;3.78;;
52564;SDS011;38460;53.106;7.004;2024-02-16T04:31:41;5.25;;;3.38;;
52564;SDS011;38460;53.106;7.004;2024-02-16T04:34:10;5.60;;;3.50;;
52564;SDS011;38460;53.106;7.004;2024-02-16T04:36:36;7.78;;;3.67;;
52564;SDS011;38460;53.106;7.004;2024-02-16T04:39:02;7.53;;;3.67;;
52564;SDS011;38460;53.106;7.004;2024-02-16T04:41:28;5.95;;;3.72;;
52564;SDS011;38460;53.106;7.004;2024-02-16T04:43:54;7.63;;;3.83;;
52564;SDS011;38460;53.106;7.004;2024-02-16T04:46:21;7.95;;;4.13;;
52564;SDS011;38460;53.106;7.004;2024-02-16T04:48:46;7.80;;;3.95;;
52564;SDS011;38460;53.106;7.004;2024-02-16T04:51:13;7.05;;;3.50;;
52564;SDS011;38460;53.106;7.004;2024-02-16T04:53:39;5.22;;;3.53;;
52564;SDS011;38460;53.106;7.004;2024-02-16T04:56:04;5.60;;;3.75;;
52564;SDS011;38460;53.106;7.004;2024-02-16T04:58:31;8.43;;;4.40;;
52564;SDS011;38460;53.106;7.004;2024-02-16T05:00:57;8.48;;;4.60;;
52564;SDS011;38460;53.106;7.004;2024-02-16T05:03:23;7.85;;;3.90;;
52564;SDS011;38460;53.106;7.004;2024-02-16T05:05:50;8.13;;;3.55;;
52564;SDS011;38460;53.106;7.004;2024-02-16T05:08:16;5.97;;;3.92;;
52564;SDS011;38460;53.106;7.004;2024-02-16T05:10:42;5.70;;;4.03;;
52564;SDS011;38460;53.106;7.004;2024-02-16T05:13:08;7.38;;;3.70;;
52564;SDS011;38460;53.106;7.004;2024-02-16T05:15:34;6.72;;;3.58;;
52564;SDS011;38460;53.106;7.004;2024-02-16T05:18:00;7.03;;;3.67;;
52564;SDS011;38460;53.106;7.004;2024-02-16T05:20:25;6.57;;;4.45;;
52564;SDS011;38460;53.106;7.004;2024-02-16T05:22:51;4.65;;;3.38;;
52564;SDS011;38460;53.106;7.004;2024-02-16T05:25:17;6.80;;;4.22;;
52564;SDS011;38460;53.106;7.004;2024-02-16T05:27:44;5.85;;;3.60;;
52564;SDS011;38460;53.106;7.004;2024-02-16T05:30:11;6.53;;;3.75;;
52564;SDS011;38460;53.106;7.004;2024-02-16T05:32:41;7.60;;;3.55;;
52564;SDS011;38460;53.106;7.004;2024-02-16T05:35:07;5.75;;;3.58;;
52564;SDS011;38460;53.106;7.004;2024-02-16T05:37:37;6.18;;;3.60;;
52564;SDS011;38460;53.106;7.004;2024-02-16T05:40:14;8.15;;;3.80;;
52564;SDS011;38460;53.106;7.004;2024-02-16T05:42:52;5.95;;;3.88;;
52564;SDS011;38460;53.106;7.004;2024-02-16T05:45:18;5.50;;;3.75;;
52564;SDS011;38460;53.106;7.004;2024-02-16T05:47:46;7.53;;;3.45;;
52564;SDS011;38460;53.106;7.004;2024-02-16T05:50:13;7.68;;;3.80;;
52564;SDS011;38460;53.106;7.004;2024-02-16T05:52:40;5.88;;;3.70;;
52564;SDS011;38460;53.106;7.004;2024-02-16T05:55:07;7.15;;;3.95;;
52564;SDS011;38460;53.106;7.004;2024-02-16T05:57:33;8.40;;;3.70;;
52564;SDS011;38460;53.106;7.004;2024-02-16T06:00:00;6.45;;;3.75;;
52564;SDS011;38460;53.106;7.004;2024-02-16T06:02:26;7.28;;;4.25;;
52564;SDS011;38460;53.106;7.004;2024-02-16T06:04:52;6.32;;;4.07;;
52564;SDS011;38460;53.106;7.004;2024-02-16T06:07:18;7.03;;;4.68;;
52564;SDS011;38460;53.106;7.004;2024-02-16T06:09:44;6.82;;;4.22;;
52564;SDS011;38460;53.106;7.004;2024-02-16T06:12:10;10.70;;;4.53;;
52564;SDS011;38460;53.106;7.004;2024-02-16T06:14:38;6.45;;;4.05;;
52564;SDS011;38460;53.106;7.004;2024-02-16T06:17:03;6.47;;;4.20;;
52564;SDS011;38460;53.106;7.004;2024-02-16T06:19:29;9.05;;;4.15;;
52564;SDS011;38460;53.106;7.004;2024-02-16T06:21:55;5.88;;;3.53;;
52564;SDS011;38460;53.106;7.004;2024-02-16T06:24:22;6.40;;;3.40;;
52564;SDS011;38460;53.106;7.004;2024-02-16T06:26:48;6.88;;;4.10;;
52564;SDS011;38460;53.106;7.004;2024-02-16T06:29:16;5.45;;;3.55;;
52564;SDS011;38460;53.106;7.004;2024-02-16T06:31:42;7.32;;;3.90;;
52564;SDS011;38460;53.106;7.004;2024-02-16T06:34:08;6.32;;;3.35;;
52564;SDS011;38460;53.106;7.004;2024-02-16T06:36:34;9.38;;;3.85;;
52564;SDS011;38460;53.106;7.004;2024-02-16T06:39:00;10.27;;;4.68;;
52564;SDS011;38460;53.106;7.004;2024-02-16T06:41:26;6.00;;;3.72;;
52564;SDS011;38460;53.106;7.004;2024-02-16T06:43:52;9.13;;;4.15;;
52564;SDS011;38460;53.106;7.004;2024-02-16T06:46:17;6.38;;;3.53;;
52564;SDS011;38460;53.106;7.004;2024-02-16T06:48:43;7.38;;;3.80;;
52564;SDS011;38460;53.106;7.004;2024-02-16T06:51:09;5.50;;;3.90;;
52564;SDS011;38460;53.106;7.004;2024-02-16T06:53:34;8.07;;;4.88;;
52564;SDS011;38460;53.106;7.004;2024-02-16T06:56:00;5.88;;;4.00;;
52564;SDS011;38460;53.106;7.004;2024-02-16T06:58:26;6.72;;;3.90;;
52564;SDS011;38460;53.106;7.004;2024-02-16T07:00:51;6.07;;;4.22;;
52564;SDS011;38460;53.106;7.004;2024-02-16T07:03:17;7.10;;;3.90;;
52564;SDS011;38460;53.106;7.004;2024-02-16T07:05:43;7.75;;;4.65;;
52564;SDS011;38460;53.106;7.004;2024-02-16T07:08:09;8.93;;;4.70;;
52564;SDS011;38460;53.106;7.004;2024-02-16T07:10:35;7.30;;;4.47;;
52564;SDS011;38460;53.106;7.004;2024-02-16T07:13:00;6.10;;;3.72;;
52564;SDS011;38460;53.106;7.004;2024-02-16T07:15:26;5.93;;;3.53;;
52564;SDS011;38460;53.106;7.004;2024-02-16T07:17:52;7.35;;;4.57;;
52564;SDS011;38460;53.106;7.004;2024-02-16T07:20:18;6.07;;;3.95;;
52564;SDS011;38460;53.106;7.004;2024-02-16T07:22:44;7.13;;;3.95;;
52564;SDS011;38460;53.106;7.004;2024-02-16T07:25:16;8.95;;;4.10;;
52564;SDS011;38460;53.106;7.004;2024-02-16T07:27:42;7.10;;;3.85;;
52564;SDS011;38460;53.106;7.004;2024-02-16T07:30:08;6.68;;;3.92;;
52564;SDS011;38460;53.106;7.004;2024-02-16T07:32:36;8.52;;;4.10;;
52564;SDS011;38460;53.106;7.004;2024-02-16T07:35:02;6.90;;;4.07;;
52564;SDS011;38460;53.106;7.004;2024-02-16T07:37:28;7.60;;;4.10;;
52564;SDS011;38460;53.106;7.004;2024-02-16T07:39:54;5.38;;;3.90;;
52564;SDS011;38460;53.106;7.004;2024-02-16T07:42:20;9.68;;;4.38;;
52564;SDS011;38460;53.106;7.004;2024-02-16T07:44:45;7.53;;;4.40;;
52564;SDS011;38460;53.106;7.004;2024-02-16T07:47:11;5.57;;;3.65;;
52564;SDS011;38460;53.106;7.004;2024-02-16T07:49:38;6.10;;;3.92;;
52564;SDS011;38460;53.106;7.004;2024-02-16T07:52:06;7.90;;;3.85;;
52564;SDS011;38460;53.106;7.004;2024-02-16T07:54:33;5.95;;;4.35;;
52564;SDS011;38460;53.106;7.004;2024-02-16T07:56:58;6.18;;;3.80;;
52564;SDS011;38460;53.106;7.004;2024-02-16T07:59:25;7.10;;;3.85;;
52564;SDS011;38460;53.106;7.004;2024-02-16T08:01:50;7.22;;;4.40;;
52564;SDS011;38460;53.106;7.004;2024-02-16T08:04:16;6.78;;;4.03;;
52564;SDS011;38460;53.106;7.004;2024-02-16T08:06:42;5.95;;;4.43;;
52564;SDS011;38460;53.106;7.004;2024-02-16T08:09:08;6.30;;;4.30;;
52564;SDS011;38460;53.106;7.004;2024-02-16T08:11:34;5.93;;;4.05;;
52564;SDS011;38460;53.106;7.004;2024-02-16T08:13:59;6.35;;;4.03;;
52564;SDS011;38460;53.106;7.004;2024-02-16T08:16:29;7.32;;;4.25;;
52564;SDS011;38460;53.106;7.004;2024-02-16T08:18:55;6.78;;;4.25;;
52564;SDS011;38460;53.106;7.004;2024-02-16T08:21:21;7.28;;;4.70;;
52564;SDS011;38460;53.106;7.004;2024-02-16T08:23:46;9.25;;;5.47;;
52564;SDS011;38460;53.106;7.004;2024-02-16T08:26:12;7.57;;;3.92;;
52564;SDS011;38460;53.106;7.004;2024-02-16T08:28:38;7.65;;;3.50;;
52564;SDS011;38460;53.106;7.004;2024-02-16T08:31:04;6.85;;;4.22;;
52564;SDS011;38460;53.106;7.004;2024-02-16T08:33:32;9.02;;;3.97;;
52564;SDS011;38460;53.106;7.004;2024-02-16T08:36:02;7.50;;;4.82;;
52564;SDS011;38460;53.106;7.004;2024-02-16T08:38:31;6.35;;;3.58;;
52564;SDS011;38460;53.106;7.004;2024-02-16T08:40:56;5.95;;;3.65;;
52564;SDS011;38460;53.106;7.004;2024-02-16T08:43:22;8.35;;;3.80;;
52564;SDS011;38460;53.106;7.004;2024-02-16T08:45:48;4.95;;;3.30;;
52564;SDS011;38460;53.106;7.004;2024-02-16T08:48:14;5.57;;;3.58;;
52564;SDS011;38460;53.106;7.004;2024-02-16T08:50:39;7.82;;;3.58;;
52564;SDS011;38460;53.106;7.004;2024-02-16T08:53:05;6.93;;;3.40;;
52564;SDS011;38460;53.106;7.004;2024-02-16T08:55:31;5.18;;;3.30;;
52564;SDS011;38460;53.106;7.004;2024-02-16T08:57:57;5.45;;;3.65;;
52564;SDS011;38460;53.106;7.004;2024-02-16T09:00:23;6.47;;;3.80;;
52564;SDS011;38460;53.106;7.004;2024-02-16T09:02:52;6.53;;;4.72;;
52564;SDS011;38460;53.106;7.004;2024-02-16T09:05:19;7.28;;;3.90;;
52564;SDS011;38460;53.106;7.004;2024-02-16T09:07:45;8.65;;;3.80;;
52564;SDS011;38460;53.106;7.004;2024-02-16T09:10:12;5.32;;;3.75;;
52564;SDS011;38460;53.106;7.004;2024-02-16T09:12:39;5.38;;;4.15;;
52564;SDS011;38460;53.106;7.004;2024-02-16T09:15:05;6.18;;;3.97;;
52564;SDS011;38460;53.106;7.004;2024-02-16T09:17:31;6.30;;;4.15;;
52564;SDS011;38460;53.106;7.004;2024-02-16T09:19:57;6.90;;;4.32;;
52564;SDS011;38460;53.106;7.004;2024-02-16T09:22:23;6.68;;;3.45;;
52564;SDS011;38460;53.106;7.004;2024-02-16T09:24:49;7.60;;;3.90;;
52564;SDS011;38460;53.106;7.004;2024-02-16T09:27:14;6.03;;;3.92;;
52564;SDS011;38460;53.106;7.004;2024-02-16T09:29:40;5.57;;;3.60;;
52564;SDS011;38460;53.106;7.004;2024-02-16T09:32:06;7.03;;;3.80;;
52564;SDS011;38460;53.106;7.004;2024-02-16T09:34:32;6.97;;;4.30;;
52564;SDS011;38460;53.106;7.004;2024-02-16T09:36:57;6.50;;;4.40;;
52564;SDS011;38460;53.106;7.004;2024-02-16T09:39:23;8.93;;;4.93;;
52564;SDS011;38460;53.106;7.004;2024-02-16T09:41:50;6.50;;;4.38;;
52564;SDS011;38460;53.106;7.004;2024-02-16T09:44:18;8.10;;;4.72;;
52564;SDS011;38460;53.106;7.004;2024-02-16T09:46:47;7.63;;;5.50;;
52564;SDS011;38460;53.106;7.004;2024-02-16T09:49:13;7.18;;;5.35;;
52564;SDS011;38460;53.106;7.004;2024-02-16T09:51:38;12.48;;;6.00;;
52564;SDS011;38460;53.106;7.004;2024-02-16T09:54:04;8.02;;;5.75;;
52564;SDS011;38460;53.106;7.004;2024-02-16T09:56:32;10.38;;;6.55;;
52564;SDS011;38460;53.106;7.004;2024-02-16T09:58:58;9.93;;;5.30;;
52564;SDS011;38460;53.106;7.004;2024-02-16T10:01:24;11.52;;;5.93;;
52564;SDS011;38460;53.106;7.004;2024-02-16T10:03:50;7.75;;;4.38;;
52564;SDS011;38460;53.106;7.004;2024-02-16T10:06:16;7.07;;;4.55;;
52564;SDS011;38460;53.106;7.004;2024-02-16T10:08:46;7.65;;;5.38;;
52564;SDS011;38460;53.106;7.004;2024-02-16T10:11:17;9.85;;;5.80;;
52564;SDS011;38460;53.106;7.004;2024-02-16T10:13:56;10.98;;;5.00;;
52564;SDS011;38460;53.106;7.004;2024-02-16T10:16:27;13.80;;;6.40;;
52564;SDS011;38460;53.106;7.004;2024-02-16T10:18:54;9.60;;;5.45;;
52564;SDS011;38460;53.106;7.004;2024-02-16T10:21:28;8.13;;;4.80;;
52564;SDS011;38460;53.106;7.004;2024-02-16T10:23:56;8.75;;;5.47;;
52564;SDS011;38460;53.106;7.004;2024-02-16T10:26:21;8.02;;;5.30;;
52564;SDS011;38460;53.106;7.004;2024-02-16T10:28:47;7.80;;;4.97;;
52564;SDS011;38460;53.106;7.004;2024-02-16T10:31:19;8.32;;;4.97;;
52564;SDS011;38460;53.106;7.004;2024-02-16T10:33:56;8.18;;;4.55;;
52564;SDS011;38460;53.106;7.004;2024-02-16T10:36:25;9.70;;;5.05;;
52564;SDS011;38460;53.106;7.004;2024-02-16T10:38:54;6.47;;;4.35;;
52564;SDS011;38460;53.106;7.004;2024-02-16T10:41:25;8.07;;;5.40;;
52564;SDS011;38460;53.106;7.004;2024-02-16T10:43:54;7.75;;;5.10;;
52564;SDS011;38460;53.106;7.004;2024-02-16T10:46:20;10.52;;;4.57;;
52564;SDS011;38460;53.106;7.004;2024-02-16T10:48:47;7.13;;;4.88;;
52564;SDS011;38460;53.106;7.004;2024-02-16T10:51:13;6.82;;;4.72;;
52564;SDS011;38460;53.106;7.004;2024-02-16T10:53:41;6.55;;;4.80;;
52564;SDS011;38460;53.106;7.004;2024-02-16T10:56:08;9.45;;;5.18;;
52564;SDS011;38460;53.106;7.004;2024-02-16T10:58:34;8.05;;;5.00;;
52564;SDS011;38460;53.106;7.004;2024-02-16T11:01:07;8.15;;;4.95;;
52564;SDS011;38460;53.106;7.004;2024-02-16T11:03:40;8.40;;;4.88;;
52564;SDS011;38460;53.106;7.004;2024-02-16T11:06:15;7.25;;;4.90;;
52564;SDS011;38460;53.106;7.004;2024-02-16T11:08:41;7.13;;;4.88;;
52564;SDS011;38460;53.106;7.004;2024-02-16T11:11:08;9.95;;;6.13;;
52564;SDS011;38460;53.106;7.004;2024-02-16T11:13:37;10.13;;;5.38;;
52564;SDS011;38460;53.106;7.004;2024-02-16T11:16:06;9.07;;;5.20;;
52564;SDS011;38460;53.106;7.004;2024-02-16T11:18:37;9.25;;;5.63;;
52564;SDS011;38460;53.106;7.004;2024-02-16T11:21:14;9.75;;;6.00;;
52564;SDS011;38460;53.106;7.004;2024-02-16T11:23:40;8.15;;;6.50;;
52564;SDS011;38460;53.106;7.004;2024-02-16T11:26:10;8.82;;;6.25;;
52564;SDS011;38460;53.106;7.004;2024-02-16T11:28:38;8.35;;;6.05;;
52564;SDS011;38460;53.106;7.004;2024-02-16T11:31:06;9.93;;;7.40;;
52564;SDS011;38460;53.106;7.004;2024-02-16T11:33:32;9.50;;;6.78;;
52564;SDS011;38460;53.106;7.004;2024-02-16T11:36:02;9.40;;;7.10;;
52564;SDS011;38460;53.106;7.004;2024-02-16T11:38:32;12.00;;;7.50;;
52564;SDS011;38460;53.106;7.004;2024-02-16T11:43:26;11.82;;;7.43;;
52564;SDS011;38460;53.106;7.004;2024-02-16T11:45:53;12.60;;;7.35;;
52564;SDS011;38460;53.106;7.004;2024-02-16T11:48:22;11.60;;;8.05;;
52564;SDS011;38460;53.106;7.004;2024-02-16T11:50:49;9.95;;;7.65;;
52564;SDS011;38460;53.106;7.004;2024-02-16T11:53:28;10.13;;;8.38;;
52564;SDS011;38460;53.106;7.004;2024-02-16T11:55:59;11.15;;;9.00;;
52564;SDS011;38460;53.106;7.004;2024-02-16T11:58:25;10.80;;;8.32;;
52564;SDS011;38460;53.106;7.004;2024-02-16T12:00:51;15.85;;;9.80;;
52564;SDS011;38460;53.106;7.004;2024-02-16T12:03:21;16.42;;;9.52;;
52564;SDS011;38460;53.106;7.004;2024-02-16T12:05:51;14.40;;;11.05;;
52564;SDS011;38460;53.106;7.004;2024-02-16T12:08:21;15.85;;;11.25;;
52564;SDS011;38460;53.106;7.004;2024-02-16T12:10:48;15.15;;;11.48;;
52564;SDS011;38460;53.106;7.004;2024-02-16T12:13:18;15.40;;;10.35;;
52564;SDS011;38460;53.106;7.004;2024-02-16T12:15:45;14.70;;;11.30;;
52564;SDS011;38460;53.106;7.004;2024-02-16T12:18:21;13.80;;;10.00;;
52564;SDS011;38460;53.106;7.004;2024-02-16T12:21:04;14.48;;;10.00;;
52564;SDS011;38460;53.106;7.004;2024-02-16T12:23:31;15.30;;;10.50;;
52564;SDS011;38460;53.106;7.004;2024-02-16T12:25:58;14.48;;;9.13;;
52564;SDS011;38460;53.106;7.004;2024-02-16T12:28:25;13.40;;;9.35;;
52564;SDS011;38460;53.106;7.004;2024-02-16T12:30:57;11.85;;;7.63;;
52564;SDS011;38460;53.106;7.004;2024-02-16T12:33:23;11.73;;;8.13;;
52564;SDS011;38460;53.106;7.004;2024-02-16T12:35:49;13.43;;;7.10;;
52564;SDS011;38460;53.106;7.004;2024-02-16T12:38:15;13.50;;;8.30;;
52564;SDS011;38460;53.106;7.004;2024-02-16T12:40:45;11.15;;;7.05;;
52564;SDS011;38460;53.106;7.004;2024-02-16T12:43:16;9.68;;;6.43;;
52564;SDS011;38460;53.106;7.004;2024-02-16T12:45:44;9.23;;;6.05;;
52564;SDS011;38460;53.106;7.004;2024-02-16T12:48:09;8.68;;;6.28;;
52564;SDS011;38460;53.106;7.004;2024-02-16T12:50:35;9.15;;;6.00;;
52564;SDS011;38460;53.106;7.004;2024-02-16T12:53:03;9.35;;;7.10;;
52564;SDS011;38460;53.106;7.004;2024-02-16T12:55:29;8.40;;;5.47;;
52564;SDS011;38460;53.106;7.004;2024-02-16T12:57:56;9.05;;;6.30;;
52564;SDS011;38460;53.106;7.004;2024-02-16T13:00:22;7.35;;;5.18;;
52564;SDS011;38460;53.106;7.004;2024-02-16T13:02:47;9.18;;;5.70;;
52564;SDS011;38460;53.106;7.004;2024-02-16T13:05:13;7.43;;;5.05;;
52564;SDS011;38460;53.106;7.004;2024-02-16T13:07:39;8.68;;;4.93;;
52564;SDS011;38460;53.106;7.004;2024-02-16T13:10:07;7.60;;;4.50;;
52564;SDS011;38460;53.106;7.004;2024-02-16T13:12:33;6.10;;;4.10;;
52564;SDS011;38460;53.106;7.004;2024-02-16T13:14:59;7.03;;;4.80;;
52564;SDS011;38460;53.106;7.004;2024-02-16T13:17:25;7.78;;;4.70;;
52564;SDS011;38460;53.106;7.004;2024-02-16T13:19:51;7.18;;;4.90;;
52564;SDS011;38460;53.106;7.004;2024-02-16T13:22:17;9.27;;;5.18;;
52564;SDS011;38460;53.106;7.004;2024-02-16T13:24:43;5.35;;;4.28;;
52564;SDS011;38460;53.106;7.004;2024-02-16T13:27:09;6.13;;;4.22;;
52564;SDS011;38460;53.106;7.004;2024-02-16T13:29:35;5.88;;;4.28;;
52564;SDS011;38460;53.106;7.004;2024-02-16T13:32:01;6.95;;;5.15;;
52564;SDS011;38460;53.106;7.004;2024-02-16T13:34:28;8.38;;;4.57;;
52564;SDS011;38460;53.106;7.004;2024-02-16T13:36:55;5.03;;;4.20;;
52564;SDS011;38460;53.106;7.004;2024-02-16T13:39:21;5.80;;;3.75;;
52564;SDS011;38460;53.106;7.004;2024-02-16T13:41:47;5.38;;;4.00;;
52564;SDS011;38460;53.106;7.004;2024-02-16T13:44:16;5.65;;;4.38;;
52564;SDS011;38460;53.106;7.004;2024-02-16T13:46:46;5.00;;;4.00;;
52564;SDS011;38460;53.106;7.004;2024-02-16T13:49:12;6.15;;;4.13;;
52564;SDS011;38460;53.106;7.004;2024-02-16T13:51:39;6.28;;;3.85;;
52564;SDS011;38460;53.106;7.004;2024-02-16T13:54:06;7.05;;;3.90;;
52564;SDS011;38460;53.106;7.004;2024-02-16T13:56:31;7.43;;;4.30;;
52564;SDS011;38460;53.106;7.004;2024-02-16T13:58:57;4.97;;;3.67;;
52564;SDS011;38460;53.106;7.004;2024-02-16T14:01:23;5.35;;;3.50;;
52564;SDS011;38460;53.106;7.004;2024-02-16T14:03:49;4.13;;;2.97;;
52564;SDS011;38460;53.106;7.004;2024-02-16T14:06:16;5.90;;;3.92;;
52564;SDS011;38460;53.106;7.004;2024-02-16T14:08:42;7.15;;;2.95;;
52564;SDS011;38460;53.106;7.004;2024-02-16T14:11:07;4.55;;;2.95;;
52564;SDS011;38460;53.106;7.004;2024-02-16T14:13:34;4.50;;;2.58;;
52564;SDS011;38460;53.106;7.004;2024-02-16T14:16:00;5.80;;;3.13;;
52564;SDS011;38460;53.106;7.004;2024-02-16T14:18:26;5.25;;;3.22;;
52564;SDS011;38460;53.106;7.004;2024-02-16T14:20:51;4.72;;;2.90;;
52564;SDS011;38460;53.106;7.004;2024-02-16T14:23:17;5.35;;;2.95;;
52564;SDS011;38460;53.106;7.004;2024-02-16T14:25:43;4.18;;;3.00;;
52564;SDS011;38460;53.106;7.004;2024-02-16T14:28:10;4.53;;;2.65;;
52564;SDS011;38460;53.106;7.004;2024-02-16T14:30:36;4.28;;;2.60;;
52564;SDS011;38460;53.106;7.004;2024-02-16T14:33:01;3.55;;;2.70;;
52564;SDS011;38460;53.106;7.004;2024-02-16T14:35:30;4.18;;;2.88;;
52564;SDS011;38460;53.106;7.004;2024-02-16T14:37:57;4.72;;;3.00;;
52564;SDS011;38460;53.106;7.004;2024-02-16T14:40:24;4.00;;;2.90;;
52564;SDS011;38460;53.106;7.004;2024-02-16T14:42:50;4.78;;;3.30;;
52564;SDS011;38460;53.106;7.004;2024-02-16T14:45:16;3.92;;;2.67;;